sensor_id;sensor_type;location;lat;lon;timestamp;P1;durP1;ratioP1;P2;durP2;ratioP2
24681;SDS011;12802;53.390;-2.328;2024-02-14T00:00:23;38.50;;;19.13;;
24681;SDS011;12802;53.390;-2.328;2024-02-14T00:02:50;36.22;;;18.23;;
24681;SDS011;12802;53.390;-2.328;2024-02-14T00:05:17;33.80;;;18.33;;
24681;SDS011;12802;53.390;-2.328;2024-02-14T00:07:43;33.63;;;17.85;;
24681;SDS011;12802;53.390;-2.328;2024-02-14T00:10:10;31.33;;;17.45;;
24681;SDS011;12802;53.390;-2.328;2024-02-14T00:12:36;34.47;;;18.77;;
24681;SDS011;12802;53.390;-2.328;2024-02-14T00:15:03;33.60;;;18.02;;
24681;SDS011;12802;53.390;-2.328;2024-02-14T00:17:31;32.38;;;18.08;;
24681;SDS011;12802;53.390;-2.328;2024-02-14T00:19:58;35.47;;;17.88;;
24681;SDS011;12802;53.390;-2.328;2024-02-14T00:22:24;51.38;;;19.50;;
24681;SDS011;12802;53.390;-2.328;2024-02-14T00:24:50;34.22;;;17.73;;
24681;SDS011;12802;53.390;-2.328;2024-02-14T00:27:17;31.73;;;17.27;;
24681;SDS011;12802;53.390;-2.328;2024-02-14T00:29:43;34.85;;;17.58;;
24681;SDS011;12802;53.390;-2.328;2024-02-14T00:32:12;36.63;;;18.00;;
24681;SDS011;12802;53.390;-2.328;2024-02-14T00:34:38;34.15;;;18.45;;
24681;SDS011;12802;53.390;-2.328;2024-02-14T00:37:04;34.85;;;18.67;;
24681;SDS011;12802;53.390;-2.328;2024-02-14T00:39:30;33.33;;;17.83;;
24681;SDS011;12802;53.390;-2.328;2024-02-14T00:41:57;34.83;;;18.15;;
24681;SDS011;12802;53.390;-2.328;2024-02-14T00:44:23;30.77;;;16.48;;
24681;SDS011;12802;53.390;-2.328;2024-02-14T00:46:49;32.50;;;17.88;;
24681;SDS011;12802;53.390;-2.328;2024-02-14T00:49:15;34.05;;;18.65;;
24681;SDS011;12802;53.390;-2.328;2024-02-14T00:51:41;33.97;;;18.45;;
24681;SDS011;12802;53.390;-2.328;2024-02-14T00:54:08;33.72;;;18.05;;
24681;SDS011;12802;53.390;-2.328;2024-02-14T00:56:34;29.15;;;16.50;;
24681;SDS011;12802;53.390;-2.328;2024-02-14T00:59:01;33.92;;;17.98;;
24681;SDS011;12802;53.390;-2.328;2024-02-14T01:01:27;30.88;;;15.45;;
24681;SDS011;12802;53.390;-2.328;2024-02-14T01:03:53;36.40;;;17.77;;
24681;SDS011;12802;53.390;-2.328;2024-02-14T01:06:19;29.90;;;15.52;;
24681;SDS011;12802;53.390;-2.328;2024-02-14T01:08:46;34.17;;;15.93;;
24681;SDS011;12802;53.390;-2.328;2024-02-14T01:11:12;37.75;;;16.55;;
24681;SDS011;12802;53.390;-2.328;2024-02-14T01:13:38;31.58;;;15.27;;
24681;SDS011;12802;53.390;-2.328;2024-02-14T01:16:04;28.73;;;14.23;;
24681;SDS011;12802;53.390;-2.328;2024-02-14T01:18:30;26.85;;;13.55;;
24681;SDS011;12802;53.390;-2.328;2024-02-14T01:20:57;25.40;;;13.48;;
24681;SDS011;12802;53.390;-2.328;2024-02-14T01:25:52;25.92;;;12.68;;
24681;SDS011;12802;53.390;-2.328;2024-02-14T01:28:20;24.38;;;11.35;;
24681;SDS011;12802;53.390;-2.328;2024-02-14T01:30:46;26.85;;;11.98;;
24681;SDS011;12802;53.390;-2.328;2024-02-14T01:33:13;30.63;;;11.77;;
24681;SDS011;12802;53.390;-2.328;2024-02-14T01:35:40;27.27;;;11.02;;
24681;SDS011;12802;53.390;-2.328;2024-02-14T01:38:07;30.63;;;12.27;;
24681;SDS011;12802;53.390;-2.328;2024-02-14T01:40:34;28.45;;;11.45;;
24681;SDS011;12802;53.390;-2.328;2024-02-14T01:43:00;35.97;;;12.75;;
24681;SDS011;12802;53.390;-2.328;2024-02-14T01:45:26;27.48;;;11.07;;
24681;SDS011;12802;53.390;-2.328;2024-02-14T01:47:53;28.92;;;11.73;;
24681;SDS011;12802;53.390;-2.328;2024-02-14T01:50:20;26.98;;;11.18;;
24681;SDS011;12802;53.390;-2.328;2024-02-14T01:52:54;27.75;;;11.50;;
24681;SDS011;12802;53.390;-2.328;2024-02-14T01:55:20;35.67;;;11.70;;
24681;SDS011;12802;53.390;-2.328;2024-02-14T01:57:47;26.55;;;11.85;;
24681;SDS011;12802;53.390;-2.328;2024-02-14T02:00:13;30.10;;;10.57;;
24681;SDS011;12802;53.390;-2.328;2024-02-14T02:02:43;28.25;;;9.73;;
24681;SDS011;12802;53.390;-2.328;2024-02-14T02:05:14;31.17;;;10.82;;
24681;SDS011;12802;53.390;-2.328;2024-02-14T02:07:42;26.08;;;9.85;;
24681;SDS011;12802;53.390;-2.328;2024-02-14T02:10:12;28.05;;;9.60;;
24681;SDS011;12802;53.390;-2.328;2024-02-14T02:12:38;21.95;;;9.07;;
24681;SDS011;12802;53.390;-2.328;2024-02-14T02:15:05;28.95;;;9.80;;
24681;SDS011;12802;53.390;-2.328;2024-02-14T02:17:32;34.97;;;10.35;;
24681;SDS011;12802;53.390;-2.328;2024-02-14T02:20:01;27.38;;;9.05;;
24681;SDS011;12802;53.390;-2.328;2024-02-14T02:22:27;42.42;;;10.48;;
24681;SDS011;12802;53.390;-2.328;2024-02-14T02:25:00;28.98;;;9.23;;
24681;SDS011;12802;53.390;-2.328;2024-02-14T02:27:26;24.65;;;8.63;;
24681;SDS011;12802;53.390;-2.328;2024-02-14T02:29:52;21.98;;;8.20;;
24681;SDS011;12802;53.390;-2.328;2024-02-14T02:32:19;23.45;;;7.45;;
24681;SDS011;12802;53.390;-2.328;2024-02-14T02:34:45;29.08;;;7.75;;
24681;SDS011;12802;53.390;-2.328;2024-02-14T02:37:11;25.58;;;6.55;;
24681;SDS011;12802;53.390;-2.328;2024-02-14T02:39:37;28.65;;;7.22;;
24681;SDS011;12802;53.390;-2.328;2024-02-14T02:42:04;22.10;;;7.20;;
24681;SDS011;12802;53.390;-2.328;2024-02-14T02:44:31;24.30;;;6.25;;
24681;SDS011;12802;53.390;-2.328;2024-02-14T02:46:57;19.65;;;6.18;;
24681;SDS011;12802;53.390;-2.328;2024-02-14T02:49:25;18.80;;;6.13;;
24681;SDS011;12802;53.390;-2.328;2024-02-14T02:51:52;21.48;;;5.95;;
24681;SDS011;12802;53.390;-2.328;2024-02-14T02:54:18;23.15;;;7.45;;
24681;SDS011;12802;53.390;-2.328;2024-02-14T02:56:44;21.80;;;5.53;;
24681;SDS011;12802;53.390;-2.328;2024-02-14T02:59:10;21.95;;;5.35;;
24681;SDS011;12802;53.390;-2.328;2024-02-14T03:01:38;20.58;;;5.35;;
24681;SDS011;12802;53.390;-2.328;2024-02-14T03:04:05;20.45;;;5.40;;
24681;SDS011;12802;53.390;-2.328;2024-02-14T03:06:33;20.25;;;4.88;;
24681;SDS011;12802;53.390;-2.328;2024-02-14T03:08:59;20.08;;;4.00;;
24681;SDS011;12802;53.390;-2.328;2024-02-14T03:11:27;16.42;;;4.35;;
24681;SDS011;12802;53.390;-2.328;2024-02-14T03:13:53;20.27;;;4.53;;
24681;SDS011;12802;53.390;-2.328;2024-02-14T03:16:20;14.73;;;3.58;;
24681;SDS011;12802;53.390;-2.328;2024-02-14T03:18:46;17.63;;;4.15;;
24681;SDS011;12802;53.390;-2.328;2024-02-14T03:21:12;15.73;;;3.58;;
24681;SDS011;12802;53.390;-2.328;2024-02-14T03:23:39;17.05;;;3.42;;
24681;SDS011;12802;53.390;-2.328;2024-02-14T03:26:06;18.35;;;3.63;;
24681;SDS011;12802;53.390;-2.328;2024-02-14T03:28:34;12.57;;;3.00;;
24681;SDS011;12802;53.390;-2.328;2024-02-14T03:31:00;15.35;;;3.25;;
24681;SDS011;12802;53.390;-2.328;2024-02-14T03:33:26;13.98;;;3.03;;
24681;SDS011;12802;53.390;-2.328;2024-02-14T03:35:54;13.77;;;3.08;;
24681;SDS011;12802;53.390;-2.328;2024-02-14T03:38:29;13.60;;;2.75;;
24681;SDS011;12802;53.390;-2.328;2024-02-14T03:40:56;13.60;;;2.83;;
24681;SDS011;12802;53.390;-2.328;2024-02-14T03:43:22;13.23;;;2.50;;
24681;SDS011;12802;53.390;-2.328;2024-02-14T03:45:49;12.98;;;2.28;;
24681;SDS011;12802;53.390;-2.328;2024-02-14T03:48:16;12.02;;;2.38;;
24681;SDS011;12802;53.390;-2.328;2024-02-14T03:50:43;8.38;;;1.90;;
24681;SDS011;12802;53.390;-2.328;2024-02-14T03:53:09;8.25;;;1.55;;
24681;SDS011;12802;53.390;-2.328;2024-02-14T03:55:39;6.07;;;1.73;;
24681;SDS011;12802;53.390;-2.328;2024-02-14T03:58:06;9.93;;;1.50;;
24681;SDS011;12802;53.390;-2.328;2024-02-14T04:00:33;7.38;;;1.50;;
24681;SDS011;12802;53.390;-2.328;2024-02-14T04:03:02;6.63;;;1.40;;
24681;SDS011;12802;53.390;-2.328;2024-02-14T04:05:28;7.30;;;1.60;;
24681;SDS011;12802;53.390;-2.328;2024-02-14T04:07:55;9.55;;;1.75;;
24681;SDS011;12802;53.390;-2.328;2024-02-14T04:10:21;5.47;;;1.70;;
24681;SDS011;12802;53.390;-2.328;2024-02-14T04:12:48;6.07;;;1.48;;
24681;SDS011;12802;53.390;-2.328;2024-02-14T04:15:14;6.70;;;1.45;;
24681;SDS011;12802;53.390;-2.328;2024-02-14T04:17:40;5.57;;;1.27;;
24681;SDS011;12802;53.390;-2.328;2024-02-14T04:20:06;8.93;;;1.70;;
24681;SDS011;12802;53.390;-2.328;2024-02-14T04:22:32;4.22;;;1.60;;
24681;SDS011;12802;53.390;-2.328;2024-02-14T04:24:59;6.60;;;1.48;;
24681;SDS011;12802;53.390;-2.328;2024-02-14T04:27:25;6.80;;;1.65;;
24681;SDS011;12802;53.390;-2.328;2024-02-14T04:29:52;5.28;;;1.42;;
24681;SDS011;12802;53.390;-2.328;2024-02-14T04:32:18;5.22;;;1.38;;
24681;SDS011;12802;53.390;-2.328;2024-02-14T04:34:45;3.88;;;1.23;;
24681;SDS011;12802;53.390;-2.328;2024-02-14T04:37:11;6.60;;;1.20;;
24681;SDS011;12802;53.390;-2.328;2024-02-14T04:39:39;3.65;;;1.00;;
24681;SDS011;12802;53.390;-2.328;2024-02-14T04:42:05;3.30;;;0.80;;
24681;SDS011;12802;53.390;-2.328;2024-02-14T04:44:32;4.68;;;1.30;;
24681;SDS011;12802;53.390;-2.328;2024-02-14T04:46:58;3.53;;;1.02;;
24681;SDS011;12802;53.390;-2.328;2024-02-14T04:49:24;3.00;;;1.00;;
24681;SDS011;12802;53.390;-2.328;2024-02-14T04:51:51;3.53;;;0.85;;
24681;SDS011;12802;53.390;-2.328;2024-02-14T04:54:18;2.35;;;0.80;;
24681;SDS011;12802;53.390;-2.328;2024-02-14T04:56:44;1.65;;;0.63;;
24681;SDS011;12802;53.390;-2.328;2024-02-14T04:59:13;2.60;;;0.77;;
24681;SDS011;12802;53.390;-2.328;2024-02-14T05:01:39;1.75;;;0.80;;
24681;SDS011;12802;53.390;-2.328;2024-02-14T05:04:06;4.43;;;1.10;;
24681;SDS011;12802;53.390;-2.328;2024-02-14T05:06:32;2.28;;;1.20;;
24681;SDS011;12802;53.390;-2.328;2024-02-14T05:08:58;2.05;;;1.20;;
24681;SDS011;12802;53.390;-2.328;2024-02-14T05:11:25;4.70;;;0.90;;
24681;SDS011;12802;53.390;-2.328;2024-02-14T05:13:51;3.38;;;0.93;;
24681;SDS011;12802;53.390;-2.328;2024-02-14T05:16:20;2.58;;;0.90;;
24681;SDS011;12802;53.390;-2.328;2024-02-14T05:18:46;1.92;;;0.90;;
24681;SDS011;12802;53.390;-2.328;2024-02-14T05:21:13;5.45;;;0.70;;
24681;SDS011;12802;53.390;-2.328;2024-02-14T05:23:39;1.65;;;0.75;;
24681;SDS011;12802;53.390;-2.328;2024-02-14T05:26:05;3.30;;;0.80;;
24681;SDS011;12802;53.390;-2.328;2024-02-14T05:28:32;3.47;;;0.80;;
24681;SDS011;12802;53.390;-2.328;2024-02-14T05:30:59;1.17;;;0.50;;
24681;SDS011;12802;53.390;-2.328;2024-02-14T05:33:26;2.65;;;1.10;;
24681;SDS011;12802;53.390;-2.328;2024-02-14T05:35:52;1.23;;;0.73;;
24681;SDS011;12802;53.390;-2.328;2024-02-14T05:38:18;2.53;;;0.93;;
24681;SDS011;12802;53.390;-2.328;2024-02-14T05:40:47;1.55;;;1.10;;
24681;SDS011;12802;53.390;-2.328;2024-02-14T05:43:14;2.65;;;0.90;;
24681;SDS011;12802;53.390;-2.328;2024-02-14T05:45:40;3.38;;;1.27;;
24681;SDS011;12802;53.390;-2.328;2024-02-14T05:48:07;2.85;;;1.00;;
24681;SDS011;12802;53.390;-2.328;2024-02-14T05:50:33;2.60;;;1.30;;
24681;SDS011;12802;53.390;-2.328;2024-02-14T05:52:59;2.80;;;1.13;;
24681;SDS011;12802;53.390;-2.328;2024-02-14T05:55:26;3.28;;;1.15;;
24681;SDS011;12802;53.390;-2.328;2024-02-14T05:57:52;4.55;;;1.00;;
24681;SDS011;12802;53.390;-2.328;2024-02-14T06:00:19;2.85;;;0.88;;
24681;SDS011;12802;53.390;-2.328;2024-02-14T06:02:48;2.78;;;1.08;;
24681;SDS011;12802;53.390;-2.328;2024-02-14T06:05:15;3.00;;;1.10;;
24681;SDS011;12802;53.390;-2.328;2024-02-14T06:07:41;3.72;;;1.00;;
24681;SDS011;12802;53.390;-2.328;2024-02-14T06:10:10;2.75;;;0.40;;
24681;SDS011;12802;53.390;-2.328;2024-02-14T06:12:36;3.03;;;1.05;;
24681;SDS011;12802;53.390;-2.328;2024-02-14T06:15:04;2.70;;;1.30;;
24681;SDS011;12802;53.390;-2.328;2024-02-14T06:17:30;2.40;;;0.75;;
24681;SDS011;12802;53.390;-2.328;2024-02-14T06:19:56;2.75;;;0.95;;
24681;SDS011;12802;53.390;-2.328;2024-02-14T06:22:23;2.97;;;1.20;;
24681;SDS011;12802;53.390;-2.328;2024-02-14T06:24:50;2.88;;;1.00;;
24681;SDS011;12802;53.390;-2.328;2024-02-14T06:27:16;3.47;;;0.65;;
24681;SDS011;12802;53.390;-2.328;2024-02-14T06:29:43;1.77;;;0.95;;
24681;SDS011;12802;53.390;-2.328;2024-02-14T06:32:15;4.50;;;0.82;;
24681;SDS011;12802;53.390;-2.328;2024-02-14T06:34:41;2.95;;;0.85;;
24681;SDS011;12802;53.390;-2.328;2024-02-14T06:37:07;2.60;;;0.70;;
24681;SDS011;12802;53.390;-2.328;2024-02-14T06:39:33;4.97;;;0.80;;
24681;SDS011;12802;53.390;-2.328;2024-02-14T06:41:59;2.08;;;0.60;;
24681;SDS011;12802;53.390;-2.328;2024-02-14T06:44:26;1.17;;;0.70;;
24681;SDS011;12802;53.390;-2.328;2024-02-14T06:46:52;2.85;;;0.70;;
24681;SDS011;12802;53.390;-2.328;2024-02-14T06:49:18;3.25;;;0.90;;
24681;SDS011;12802;53.390;-2.328;2024-02-14T06:51:44;3.15;;;0.85;;
24681;SDS011;12802;53.390;-2.328;2024-02-14T06:54:11;1.58;;;0.40;;
24681;SDS011;12802;53.390;-2.328;2024-02-14T06:56:40;2.15;;;0.60;;
24681;SDS011;12802;53.390;-2.328;2024-02-14T06:59:06;1.75;;;0.50;;
24681;SDS011;12802;53.390;-2.328;2024-02-14T07:01:32;3.60;;;0.70;;
24681;SDS011;12802;53.390;-2.328;2024-02-14T07:03:59;2.08;;;0.90;;
24681;SDS011;12802;53.390;-2.328;2024-02-14T07:06:26;5.45;;;0.80;;
24681;SDS011;12802;53.390;-2.328;2024-02-14T07:08:53;4.68;;;0.60;;
24681;SDS011;12802;53.390;-2.328;2024-02-14T07:11:19;2.08;;;0.60;;
24681;SDS011;12802;53.390;-2.328;2024-02-14T07:13:45;3.15;;;0.50;;
24681;SDS011;12802;53.390;-2.328;2024-02-14T07:16:11;3.45;;;0.65;;
24681;SDS011;12802;53.390;-2.328;2024-02-14T07:18:37;2.65;;;0.73;;
24681;SDS011;12802;53.390;-2.328;2024-02-14T07:21:03;5.57;;;0.88;;
24681;SDS011;12802;53.390;-2.328;2024-02-14T07:23:31;2.97;;;0.70;;
24681;SDS011;12802;53.390;-2.328;2024-02-14T07:25:58;3.28;;;0.60;;
24681;SDS011;12802;53.390;-2.328;2024-02-14T07:28:26;1.92;;;0.75;;
24681;SDS011;12802;53.390;-2.328;2024-02-14T07:30:52;4.82;;;0.90;;
24681;SDS011;12802;53.390;-2.328;2024-02-14T07:33:18;2.58;;;0.60;;
24681;SDS011;12802;53.390;-2.328;2024-02-14T07:35:44;4.45;;;0.80;;
24681;SDS011;12802;53.390;-2.328;2024-02-14T07:38:12;1.88;;;0.60;;
24681;SDS011;12802;53.390;-2.328;2024-02-14T07:40:38;1.05;;;0.60;;
24681;SDS011;12802;53.390;-2.328;2024-02-14T07:43:05;2.83;;;0.65;;
24681;SDS011;12802;53.390;-2.328;2024-02-14T07:45:32;4.30;;;0.85;;
24681;SDS011;12802;53.390;-2.328;2024-02-14T07:47:58;2.65;;;0.90;;
24681;SDS011;12802;53.390;-2.328;2024-02-14T07:50:24;2.25;;;1.00;;
24681;SDS011;12802;53.390;-2.328;2024-02-14T07:52:53;4.07;;;0.80;;
24681;SDS011;12802;53.390;-2.328;2024-02-14T07:55:19;2.80;;;1.25;;
24681;SDS011;12802;53.390;-2.328;2024-02-14T07:57:45;5.20;;;1.15;;
24681;SDS011;12802;53.390;-2.328;2024-02-14T08:00:11;2.75;;;0.80;;
24681;SDS011;12802;53.390;-2.328;2024-02-14T08:02:43;3.05;;;0.98;;
24681;SDS011;12802;53.390;-2.328;2024-02-14T08:05:09;3.95;;;1.02;;
24681;SDS011;12802;53.390;-2.328;2024-02-14T08:07:35;3.00;;;1.00;;
24681;SDS011;12802;53.390;-2.328;2024-02-14T08:10:02;3.28;;;0.98;;
24681;SDS011;12802;53.390;-2.328;2024-02-14T08:12:28;3.42;;;1.10;;
24681;SDS011;12802;53.390;-2.328;2024-02-14T08:14:55;3.00;;;0.93;;
24681;SDS011;12802;53.390;-2.328;2024-02-14T08:17:21;5.53;;;0.93;;
24681;SDS011;12802;53.390;-2.328;2024-02-14T08:19:47;3.65;;;1.08;;
24681;SDS011;12802;53.390;-2.328;2024-02-14T08:22:13;5.20;;;1.15;;
24681;SDS011;12802;53.390;-2.328;2024-02-14T08:24:39;7.20;;;0.95;;
24681;SDS011;12802;53.390;-2.328;2024-02-14T08:27:06;3.35;;;1.00;;
24681;SDS011;12802;53.390;-2.328;2024-02-14T08:29:32;2.85;;;1.00;;
24681;SDS011;12802;53.390;-2.328;2024-02-14T08:31:58;7.55;;;1.30;;
24681;SDS011;12802;53.390;-2.328;2024-02-14T08:34:24;4.30;;;1.05;;
24681;SDS011;12802;53.390;-2.328;2024-02-14T08:36:51;3.30;;;0.90;;
24681;SDS011;12802;53.390;-2.328;2024-02-14T08:39:18;7.55;;;1.30;;
24681;SDS011;12802;53.390;-2.328;2024-02-14T08:41:45;5.43;;;0.95;;
24681;SDS011;12802;53.390;-2.328;2024-02-14T08:44:12;4.90;;;0.93;;
24681;SDS011;12802;53.390;-2.328;2024-02-14T08:46:38;4.55;;;1.05;;
24681;SDS011;12802;53.390;-2.328;2024-02-14T08:49:07;5.43;;;1.20;;
24681;SDS011;12802;53.390;-2.328;2024-02-14T08:51:34;8.68;;;1.50;;
24681;SDS011;12802;53.390;-2.328;2024-02-14T08:54:01;6.88;;;1.33;;
24681;SDS011;12802;53.390;-2.328;2024-02-14T08:56:33;6.70;;;1.20;;
24681;SDS011;12802;53.390;-2.328;2024-02-14T08:59:02;6.38;;;1.10;;
24681;SDS011;12802;53.390;-2.328;2024-02-14T09:01:30;4.43;;;1.10;;
24681;SDS011;12802;53.390;-2.328;2024-02-14T09:03:57;11.32;;;2.10;;
24681;SDS011;12802;53.390;-2.328;2024-02-14T09:06:24;11.27;;;1.58;;
24681;SDS011;12802;53.390;-2.328;2024-02-14T09:08:51;4.80;;;1.30;;
24681;SDS011;12802;53.390;-2.328;2024-02-14T09:11:18;8.77;;;1.25;;
24681;SDS011;12802;53.390;-2.328;2024-02-14T09:13:44;3.30;;;0.82;;
24681;SDS011;12802;53.390;-2.328;2024-02-14T09:16:16;5.95;;;1.15;;
24681;SDS011;12802;53.390;-2.328;2024-02-14T09:18:42;3.95;;;0.90;;
24681;SDS011;12802;53.390;-2.328;2024-02-14T09:21:11;9.10;;;1.38;;
24681;SDS011;12802;53.390;-2.328;2024-02-14T09:23:37;8.80;;;1.35;;
24681;SDS011;12802;53.390;-2.328;2024-02-14T09:26:07;6.63;;;1.10;;
24681;SDS011;12802;53.390;-2.328;2024-02-14T09:28:33;8.70;;;1.20;;
24681;SDS011;12802;53.390;-2.328;2024-02-14T09:31:00;5.20;;;1.10;;
24681;SDS011;12802;53.390;-2.328;2024-02-14T09:33:28;8.30;;;0.80;;
24681;SDS011;12802;53.390;-2.328;2024-02-14T09:35:55;8.30;;;1.35;;
24681;SDS011;12802;53.390;-2.328;2024-02-14T09:38:21;4.43;;;1.00;;
24681;SDS011;12802;53.390;-2.328;2024-02-14T09:40:48;7.95;;;1.45;;
24681;SDS011;12802;53.390;-2.328;2024-02-14T09:43:32;6.07;;;0.80;;
24681;SDS011;12802;53.390;-2.328;2024-02-14T09:46:00;3.95;;;0.85;;
24681;SDS011;12802;53.390;-2.328;2024-02-14T09:48:28;5.18;;;1.40;;
24681;SDS011;12802;53.390;-2.328;2024-02-14T09:50:55;3.65;;;0.85;;
24681;SDS011;12802;53.390;-2.328;2024-02-14T09:53:22;7.00;;;1.10;;
24681;SDS011;12802;53.390;-2.328;2024-02-14T09:55:49;4.20;;;0.65;;
24681;SDS011;12802;53.390;-2.328;2024-02-14T09:58:15;8.55;;;1.30;;
24681;SDS011;12802;53.390;-2.328;2024-02-14T10:00:42;5.30;;;0.70;;
24681;SDS011;12802;53.390;-2.328;2024-02-14T10:03:08;4.25;;;0.90;;
24681;SDS011;12802;53.390;-2.328;2024-02-14T10:05:35;4.85;;;0.93;;
24681;SDS011;12802;53.390;-2.328;2024-02-14T10:08:01;9.63;;;1.27;;
24681;SDS011;12802;53.390;-2.328;2024-02-14T10:10:28;8.18;;;0.90;;
24681;SDS011;12802;53.390;-2.328;2024-02-14T10:12:54;8.85;;;1.20;;
24681;SDS011;12802;53.390;-2.328;2024-02-14T10:15:22;7.85;;;0.90;;
24681;SDS011;12802;53.390;-2.328;2024-02-14T10:17:48;5.78;;;1.17;;
24681;SDS011;12802;53.390;-2.328;2024-02-14T10:20:16;5.38;;;0.98;;
24681;SDS011;12802;53.390;-2.328;2024-02-14T10:22:43;5.77;;;1.23;;
24681;SDS011;12802;53.390;-2.328;2024-02-14T10:25:09;7.75;;;1.27;;
24681;SDS011;12802;53.390;-2.328;2024-02-14T10:27:36;4.15;;;1.00;;
24681;SDS011;12802;53.390;-2.328;2024-02-14T10:30:12;4.70;;;1.02;;
24681;SDS011;12802;53.390;-2.328;2024-02-14T10:32:39;6.80;;;1.45;;
24681;SDS011;12802;53.390;-2.328;2024-02-14T10:35:06;11.25;;;1.73;;
24681;SDS011;12802;53.390;-2.328;2024-02-14T10:37:36;5.65;;;1.45;;
24681;SDS011;12802;53.390;-2.328;2024-02-14T10:40:03;5.85;;;1.42;;
24681;SDS011;12802;53.390;-2.328;2024-02-14T10:42:33;4.38;;;1.40;;
24681;SDS011;12802;53.390;-2.328;2024-02-14T10:45:02;5.22;;;1.33;;
24681;SDS011;12802;53.390;-2.328;2024-02-14T10:47:33;6.78;;;1.45;;
24681;SDS011;12802;53.390;-2.328;2024-02-14T10:50:02;4.78;;;1.45;;
24681;SDS011;12802;53.390;-2.328;2024-02-14T10:52:36;6.53;;;1.50;;
24681;SDS011;12802;53.390;-2.328;2024-02-14T10:55:03;5.55;;;1.45;;
24681;SDS011;12802;53.390;-2.328;2024-02-14T10:57:30;2.42;;;1.25;;
24681;SDS011;12802;53.390;-2.328;2024-02-14T11:02:26;3.75;;;1.35;;
24681;SDS011;12802;53.390;-2.328;2024-02-14T11:04:56;9.90;;;2.03;;
24681;SDS011;12802;53.390;-2.328;2024-02-14T11:07:22;5.22;;;1.38;;
24681;SDS011;12802;53.390;-2.328;2024-02-14T11:09:59;5.53;;;1.25;;
24681;SDS011;12802;53.390;-2.328;2024-02-14T11:12:27;5.82;;;1.25;;
24681;SDS011;12802;53.390;-2.328;2024-02-14T11:14:56;2.08;;;1.00;;
24681;SDS011;12802;53.390;-2.328;2024-02-14T11:17:23;6.95;;;1.48;;
24681;SDS011;12802;53.390;-2.328;2024-02-14T11:19:52;5.40;;;0.97;;
24681;SDS011;12802;53.390;-2.328;2024-02-14T11:22:19;4.18;;;1.08;;
24681;SDS011;12802;53.390;-2.328;2024-02-14T11:24:46;2.55;;;1.00;;
24681;SDS011;12802;53.390;-2.328;2024-02-14T11:27:12;2.67;;;1.70;;
24681;SDS011;12802;53.390;-2.328;2024-02-14T11:29:39;4.85;;;1.63;;
24681;SDS011;12802;53.390;-2.328;2024-02-14T11:34:34;4.80;;;1.20;;
24681;SDS011;12802;53.390;-2.328;2024-02-14T11:37:01;5.50;;;1.08;;
24681;SDS011;12802;53.390;-2.328;2024-02-14T11:39:27;3.40;;;1.13;;
24681;SDS011;12802;53.390;-2.328;2024-02-14T11:41:53;1.80;;;0.88;;
24681;SDS011;12802;53.390;-2.328;2024-02-14T11:44:19;4.03;;;0.90;;
24681;SDS011;12802;53.390;-2.328;2024-02-14T11:46:47;2.85;;;0.90;;
24681;SDS011;12802;53.390;-2.328;2024-02-14T11:49:13;4.68;;;0.85;;
24681;SDS011;12802;53.390;-2.328;2024-02-14T11:51:39;4.78;;;0.93;;
24681;SDS011;12802;53.390;-2.328;2024-02-14T11:54:06;2.15;;;0.80;;
24681;SDS011;12802;53.390;-2.328;2024-02-14T11:56:33;4.85;;;0.80;;
24681;SDS011;12802;53.390;-2.328;2024-02-14T11:59:00;2.67;;;0.93;;
24681;SDS011;12802;53.390;-2.328;2024-02-14T12:01:33;3.50;;;0.63;;
24681;SDS011;12802;53.390;-2.328;2024-02-14T12:04:00;4.00;;;1.00;;
24681;SDS011;12802;53.390;-2.328;2024-02-14T12:06:27;4.22;;;0.82;;
24681;SDS011;12802;53.390;-2.328;2024-02-14T12:08:54;4.13;;;0.82;;
24681;SDS011;12802;53.390;-2.328;2024-02-14T12:11:21;4.78;;;1.10;;
24681;SDS011;12802;53.390;-2.328;2024-02-14T12:13:50;5.38;;;1.20;;
24681;SDS011;12802;53.390;-2.328;2024-02-14T12:18:43;4.00;;;0.50;;
24681;SDS011;12802;53.390;-2.328;2024-02-14T12:21:09;3.38;;;0.88;;
24681;SDS011;12802;53.390;-2.328;2024-02-14T12:23:35;3.75;;;1.00;;
24681;SDS011;12802;53.390;-2.328;2024-02-14T12:26:03;6.35;;;0.95;;
24681;SDS011;12802;53.390;-2.328;2024-02-14T12:28:30;2.72;;;0.90;;
24681;SDS011;12802;53.390;-2.328;2024-02-14T12:30:56;2.25;;;0.82;;
24681;SDS011;12802;53.390;-2.328;2024-02-14T12:33:23;4.63;;;1.13;;
24681;SDS011;12802;53.390;-2.328;2024-02-14T12:35:50;4.65;;;1.00;;
24681;SDS011;12802;53.390;-2.328;2024-02-14T12:38:17;2.38;;;1.00;;
24681;SDS011;12802;53.390;-2.328;2024-02-14T12:40:44;8.43;;;1.40;;
24681;SDS011;12802;53.390;-2.328;2024-02-14T12:43:13;5.28;;;1.25;;
24681;SDS011;12802;53.390;-2.328;2024-02-14T12:45:41;6.85;;;1.40;;
24681;SDS011;12802;53.390;-2.328;2024-02-14T12:48:07;6.18;;;1.40;;
24681;SDS011;12802;53.390;-2.328;2024-02-14T12:50:34;4.30;;;1.40;;
24681;SDS011;12802;53.390;-2.328;2024-02-14T12:53:09;4.38;;;1.40;;
24681;SDS011;12802;53.390;-2.328;2024-02-14T12:55:35;4.25;;;1.42;;
24681;SDS011;12802;53.390;-2.328;2024-02-14T12:58:01;2.75;;;1.35;;
24681;SDS011;12802;53.390;-2.328;2024-02-14T13:00:28;5.38;;;1.30;;
24681;SDS011;12802;53.390;-2.328;2024-02-14T13:02:56;9.07;;;1.40;;
24681;SDS011;12802;53.390;-2.328;2024-02-14T13:05:23;4.68;;;1.20;;
24681;SDS011;12802;53.390;-2.328;2024-02-14T13:07:50;7.68;;;1.20;;
24681;SDS011;12802;53.390;-2.328;2024-02-14T13:10:17;4.20;;;1.25;;
24681;SDS011;12802;53.390;-2.328;2024-02-14T13:12:43;5.18;;;1.70;;
24681;SDS011;12802;53.390;-2.328;2024-02-14T13:15:10;3.42;;;1.20;;
24681;SDS011;12802;53.390;-2.328;2024-02-14T13:17:37;6.38;;;1.70;;
24681;SDS011;12802;53.390;-2.328;2024-02-14T13:20:03;5.72;;;1.38;;
24681;SDS011;12802;53.390;-2.328;2024-02-14T13:22:29;4.82;;;1.50;;
24681;SDS011;12802;53.390;-2.328;2024-02-14T13:24:56;4.88;;;1.50;;
24681;SDS011;12802;53.390;-2.328;2024-02-14T13:27:22;6.32;;;1.70;;
24681;SDS011;12802;53.390;-2.328;2024-02-14T13:29:48;6.30;;;1.65;;
24681;SDS011;12802;53.390;-2.328;2024-02-14T13:32:15;8.70;;;1.77;;
24681;SDS011;12802;53.390;-2.328;2024-02-14T13:34:41;3.85;;;1.20;;
24681;SDS011;12802;53.390;-2.328;2024-02-14T13:37:09;7.82;;;1.20;;
24681;SDS011;12802;53.390;-2.328;2024-02-14T13:39:35;4.50;;;1.20;;
24681;SDS011;12802;53.390;-2.328;2024-02-14T13:42:01;4.25;;;1.38;;
24681;SDS011;12802;53.390;-2.328;2024-02-14T13:44:27;5.15;;;1.45;;
24681;SDS011;12802;53.390;-2.328;2024-02-14T13:46:54;8.23;;;1.90;;
24681;SDS011;12802;53.390;-2.328;2024-02-14T13:49:21;8.45;;;2.17;;
24681;SDS011;12802;53.390;-2.328;2024-02-14T13:51:51;6.10;;;1.63;;
24681;SDS011;12802;53.390;-2.328;2024-02-14T13:54:17;7.00;;;1.52;;
24681;SDS011;12802;53.390;-2.328;2024-02-14T13:56:44;9.07;;;2.00;;
24681;SDS011;12802;53.390;-2.328;2024-02-14T13:59:10;11.70;;;2.10;;
24681;SDS011;12802;53.390;-2.328;2024-02-14T14:01:37;10.75;;;1.50;;
24681;SDS011;12802;53.390;-2.328;2024-02-14T14:04:03;8.85;;;2.40;;
24681;SDS011;12802;53.390;-2.328;2024-02-14T14:06:29;7.63;;;1.50;;
24681;SDS011;12802;53.390;-2.328;2024-02-14T14:08:55;12.68;;;2.15;;
24681;SDS011;12802;53.390;-2.328;2024-02-14T14:11:22;7.53;;;1.60;;
24681;SDS011;12802;53.390;-2.328;2024-02-14T14:13:48;12.20;;;2.10;;
24681;SDS011;12802;53.390;-2.328;2024-02-14T14:16:14;7.13;;;1.67;;
24681;SDS011;12802;53.390;-2.328;2024-02-14T14:18:40;12.23;;;1.92;;
24681;SDS011;12802;53.390;-2.328;2024-02-14T14:21:07;14.13;;;2.20;;
24681;SDS011;12802;53.390;-2.328;2024-02-14T14:23:33;12.70;;;2.25;;
24681;SDS011;12802;53.390;-2.328;2024-02-14T14:25:59;14.95;;;2.67;;
24681;SDS011;12802;53.390;-2.328;2024-02-14T14:28:26;10.30;;;1.60;;
24681;SDS011;12802;53.390;-2.328;2024-02-14T14:30:56;14.07;;;2.38;;
24681;SDS011;12802;53.390;-2.328;2024-02-14T14:33:22;10.20;;;1.98;;
24681;SDS011;12802;53.390;-2.328;2024-02-14T14:35:50;9.75;;;1.63;;